Airfield :







YOU CAN JOIN US ON...

 
LOGIN :

Register | Disclaimer

   EN    FR    IT 

 









Legend :    VFR   Marginal VFR   IFR   Intensive IFR   Very Intensive IFR
Visi :
Ceiling :
>= 8 km
>= 3000ft
5 to 8 km
1000 to 3000 ft
1500m to 5 km
500 to 1000 ft
800 to 1500m
200 to 500 ft
< 800m
< 200 ft
Symbols :   Thunderstorms  Fog  Heavy snow  Heavy precipitations  Wind > 20 kt






- Airport Elevation : 124 ft
- IATA code : YGV


CYGV - Havre St Pierre

CURRENT METAR :
  • 181008Z AUTO 06008KT 3SM RA BR BKN071 OVC091 15/13 A3001 RMK PCPN 1.0MM PAST HR SLP165

EXPIRED METARs :
  • 180959Z AUTO 06007KT 5SM RA SCT066 BKN084 OVC100 16/13 A3001 RMK PCPN 0.5MM PAST HR SLP164 DENSITY ALT 200FT
  • 180948Z AUTO 05009KT 9SM -RA OVC086 16/13 A3001 RMK SLP164 DENSITY ALT 200FT
  • 180917Z AUTO 05006KT 9SM OVC081 16/13 A3002 RMK SLP168 DENSITY ALT 200FT
  • 180900Z AUTO 05008KT 9SM -RA OVC081 16/12 A3002 RMK SLP168 DENSITY ALT 200FT
  • 180800Z AUTO 06006KT 9SM SCT081 OVC100 17/11 A3002 RMK SLP170 DENSITY ALT 300FT

TAF AMD TAF CYGV
Valid from the 18 at 10:00 until the 18 at 20:00 UTC


181007Z 1810/1820 06010KT P6SM -RA SCT020 OVC040
TEMPO 1810/1820 5SM -RA BR OVC020
BECMG 1814/1816 07015G25KT RMK FCST BASED ON AUTO OBS. NXT FCST BY 181400Z
CZUL FIR / North America



MET'MAP, your aeronautical weather chart ! - Copyright ORBIFLY December 2007 - Disclaimer

ORBIFLY MET'MAP TEAM :

Programming & Development : Alexandra Zaïnal
Original concept : Baudouin d'Aumeries
Technical & hardware support : Manuel Goepfert
Assistance : Marc-Olivier Méhu




SOURCES & CREDITS :

   NOAA